KWLD/WLD METAR and TAF weather

Enter ICAO airport designator
Station Type Date Time Source
KWLD METAR 2021/05/13 05:54 UTC NOAA

KWLD 130554Z AUTO 04003KT 10SM CLR 09/04 A3039 RMK AO2 SLP288 T00940039 10178 20094 401940044 53009 $


Station Type Date Time Source
KWLD Decoded METAR 2021/05/13 05:54 UTC NOAA

STROTHER FIELD, KS, United States (KWLD) 37-10N 97-02W 350M
May 13, 2021 - 01:54 AM EDT / 2021.05.13 0554 UTC
Wind: from the NE (040 degrees) at 3 MPH (3 KT):0
Visibility: 10 mile(s):0
Sky conditions: clear
Temperature: 48.9 F (9.4 C)
Dew Point: 39.0 F (3.9 C)
Relative Humidity: 68%
Pressure (altimeter): 30.39 in. Hg (1029 hPa)
Pressure tendency: 0.03 inches (0.9 hPa) higher than three hours ago
ob: KWLD 130554Z AUTO 04003KT 10SM CLR 09/04 A3039 RMK AO2 SLP288 T00940039 10178 20094 401940044 53009
cycle: 6

Station Type Date Time Source
KWLD TAF UTC NOAA

Error!

Example: see airport list